Braddock, North Dakota
Current Conditions -  °F | °C
As of 4:55 AM on Sunday 23 Nov 2014 (Local Time) from K7L2 Reporting Station
Clear Clear  
Wind Chill: 30°   Ceiling: Unl
Heat Index: 37°   Visibility: 10mi
Dew Point: 34°   Wind: 10mph
Humidity: 87%   Direction: 270°W
Pressure: 29.46"   Gusts: NA
Location:  46.56°N, 100.09°W
Report Text: K7L2 231055Z AUTO 27009KT 10SM CLR 03/01 A2946 RMK AO2
Loading
Personal Weather Stations






























Interactive Weather Map New forecast layout! Learn more

10-Day Weather Forecast

Advertisements
Track Severe Weather on mobile